Time,TemperatureF,DewpointF,PressureIn,WindDirection,WindDirectionDegrees,WindSpeedMPH,WindSpeedGustMPH,Humidity,HourlyPrecipIn,Conditions,Clouds,dailyrainin,SolarRadiationWatts/m^2,SoftwareType,DateUTC
2013-03-08 00:00:00,40.3,32.0,30.17,ESE,112,1.0,9.0,72,0.00,,OVC020,0.00,0.00,VWS V14.01,2013-03-08 06:00:00,
2013-03-08 00:03:00,41.8,32.0,30.17,ESE,115,1.0,6.0,68,0.00,,CLR,0.00,0.00,VWS V14.01,2013-03-08 06:03:00,
2013-03-08 00:05:00,40.2,31.9,30.17,SE,128,0.0,5.0,72,0.00,,OVC020,0.00,0.00,VWS V14.01,2013-03-08 06:05:00,
2013-03-08 00:08:00,41.6,31.8,30.17,ESE,106,2.0,4.0,68,0.00,,CLR,0.00,0.00,VWS V14.01,2013-03-08 06:08:00,
2013-03-08 00:10:00,40.0,32.1,30.17,SE,134,0.0,4.0,73,0.00,,OVC020,0.00,0.00,VWS V14.01,2013-03-08 06:10:00,
2013-03-08 00:13:00,41.4,32.0,30.17,SSE,157,2.0,3.0,69,0.00,,CLR,0.00,0.00,VWS V14.01,2013-03-08 06:13:00,
2013-03-08 00:15:00,39.9,32.0,30.18,SE,130,1.0,4.0,73,0.00,,OVC020,0.00,0.00,VWS V14.01,2013-03-08 06:15:00,
2013-03-08 00:18:00,41.3,31.9,30.17,ESE,118,1.0,2.0,69,0.00,,CLR,0.00,0.00,VWS V14.01,2013-03-08 06:18:00,
2013-03-08 00:20:00,39.8,31.9,30.18,ESE,115,1.0,3.0,73,0.00,,OVC020,0.00,0.00,VWS V14.01,2013-03-08 06:20:00,
2013-03-08 00:23:00,41.1,32.1,30.17,ESE,113,7.0,7.0,70,0.00,,CLR,0.00,0.00,VWS V14.01,2013-03-08 06:23:00,
2013-03-08 00:25:00,39.6,32.0,30.18,SSE,155,0.0,3.0,74,0.00,,OVC020,0.00,0.00,VWS V14.01,2013-03-08 06:25:00,
2013-03-08 00:28:00,41.0,32.0,30.17,SSE,156,0.0,0.0,70,0.00,,CLR,0.00,0.00,VWS V14.01,2013-03-08 06:28:00,
2013-03-08 00:30:00,39.5,31.9,30.19,SE,138,0.0,8.0,74,0.00,,OVC020,0.00,0.00,VWS V14.01,2013-03-08 06:30:00,
2013-03-08 00:33:00,40.9,31.9,30.17,East,88,0.0,5.0,70,0.00,,CLR,0.00,0.00,VWS V14.01,2013-03-08 06:33:00,
2013-03-08 00:35:00,39.4,31.8,30.19,ESE,123,0.0,5.0,74,0.00,,OVC020,0.00,0.00,VWS V14.01,2013-03-08 06:35:00,
2013-03-08 00:38:00,40.7,32.0,30.17,SSE,163,2.0,4.0,71,0.00,,CLR,0.00,0.00,VWS V14.01,2013-03-08 06:38:00,
2013-03-08 00:40:00,39.3,31.7,30.19,ESE,123,1.0,2.0,74,0.00,,OVC020,0.00,0.00,VWS V14.01,2013-03-08 06:40:00,
2013-03-08 00:43:00,40.6,32.0,30.17,East,94,2.0,3.0,71,0.00,,CLR,0.00,0.00,VWS V14.01,2013-03-08 06:43:00,
2013-03-08 00:45:00,39.1,31.9,30.19,East,94,2.0,3.0,75,0.00,,OVC020,0.00,0.00,VWS V14.01,2013-03-08 06:45:00,
2013-03-08 00:48:00,40.5,31.9,30.17,ESE,113,3.0,9.0,71,0.00,,CLR,0.00,0.00,VWS V14.01,2013-03-08 06:48:00,
2013-03-08 00:50:00,39.0,32.1,30.19,SE,142,0.0,7.0,76,0.00,,OVC020,0.00,0.00,VWS V14.01,2013-03-08 06:50:00,
2013-03-08 00:53:00,40.4,32.1,30.17,SSE,164,2.0,5.0,72,0.00,,CLR,0.00,0.00,VWS V14.01,2013-03-08 06:53:00,
2013-03-08 00:55:00,38.9,32.0,30.19,ESE,123,3.0,3.0,76,0.00,,OVC020,0.00,0.00,VWS V14.01,2013-03-08 06:55:00,
2013-03-08 00:58:00,40.4,32.1,30.17,ESE,103,0.0,6.0,72,0.00,,CLR,0.00,0.00,VWS V14.01,2013-03-08 06:58:00,
2013-03-08 01:00:00,38.8,31.9,30.20,ESE,121,2.0,4.0,76,0.00,,OVC020,0.00,0.00,VWS V14.01,2013-03-08 07:00:00,
2013-03-08 01:03:00,40.2,31.9,30.17,ESE,105,0.0,5.0,72,0.00,,CLR,0.00,0.00,VWS V14.01,2013-03-08 07:03:00,
2013-03-08 01:05:00,38.7,31.8,30.20,SSW,200,0.0,3.0,76,0.00,,OVC020,0.00,0.00,VWS V14.01,2013-03-08 07:05:00,
2013-03-08 01:08:00,40.1,32.2,30.17,SE,137,4.0,4.0,73,0.00,,CLR,0.00,0.00,VWS V14.01,2013-03-08 07:08:00,
2013-03-08 01:10:00,38.6,32.0,30.20,SE,137,0.0,5.0,77,0.00,,OVC020,0.00,0.00,VWS V14.01,2013-03-08 07:10:00,
2013-03-08 01:13:00,40.0,32.1,30.17,SSW,199,0.0,4.0,73,0.00,,CLR,0.00,0.00,VWS V14.01,2013-03-08 07:13:00,
2013-03-08 01:15:00,38.4,31.8,30.19,ESE,122,0.0,3.0,77,0.00,,OVC020,0.00,0.00,VWS V14.01,2013-03-08 07:15:00,
2013-03-08 01:18:00,39.8,31.9,30.18,SE,125,0.0,2.0,73,0.00,,CLR,0.00,0.00,VWS V14.01,2013-03-08 07:18:00,
2013-03-08 01:20:00,38.3,31.7,30.19,East,99,5.0,5.0,77,0.00,,OVC020,0.00,0.00,VWS V14.01,2013-03-08 07:20:00,
2013-03-08 01:23:00,39.7,32.1,30.18,ESE,115,0.0,1.0,74,0.00,,CLR,0.00,0.00,VWS V14.01,2013-03-08 07:23:00,
2013-03-08 01:25:00,38.2,32.0,30.19,ESE,121,2.0,5.0,78,0.00,,OVC020,0.00,0.00,VWS V14.01,2013-03-08 07:25:00,
2013-03-08 01:28:00,39.6,32.0,30.18,SE,139,0.0,8.0,74,0.00,,CLR,0.00,0.00,VWS V14.01,2013-03-08 07:28:00,
2013-03-08 01:30:00,38.0,31.8,30.19,SSW,192,2.0,3.0,78,0.00,,OVC020,0.00,0.00,VWS V14.01,2013-03-08 07:30:00,
2013-03-08 01:33:00,39.5,31.9,30.19,ESE,122,3.0,5.0,74,0.00,,CLR,0.00,0.00,VWS V14.01,2013-03-08 07:33:00,
2013-03-08 01:35:00,37.9,31.7,30.19,SE,142,0.0,4.0,78,0.00,,OVC020,0.00,0.00,VWS V14.01,2013-03-08 07:35:00,
2013-03-08 01:38:00,39.4,31.8,30.19,ESE,123,0.0,0.0,74,0.00,,CLR,0.00,0.00,VWS V14.01,2013-03-08 07:38:00,
2013-03-08 01:40:00,37.8,31.9,30.19,ESE,107,2.0,5.0,79,0.00,,OVC020,0.00,0.00,VWS V14.01,2013-03-08 07:40:00,
2013-03-08 01:43:00,39.2,32.0,30.19,South,180,0.0,2.0,75,0.00,,CLR,0.00,0.00,VWS V14.01,2013-03-08 07:43:00,
2013-03-08 01:45:00,37.8,31.9,30.19,SE,128,2.0,5.0,79,0.00,,OVC020,0.00,0.00,VWS V14.01,2013-03-08 07:45:00,
2013-03-08 01:48:00,39.1,31.9,30.19,SE,125,3.0,7.0,75,0.00,,CLR,0.00,0.00,VWS V14.01,2013-03-08 07:48:00,
2013-03-08 01:50:00,37.8,31.9,30.19,SE,134,0.0,7.0,79,0.00,,OVC020,0.00,0.00,VWS V14.01,2013-03-08 07:50:00,
2013-03-08 01:54:00,39.0,31.8,30.19,SSE,148,0.0,1.0,75,0.00,,CLR,0.00,0.00,VWS V14.01,2013-03-08 07:54:00,
2013-03-08 01:55:00,37.8,31.9,30.19,ESE,108,0.0,4.0,79,0.00,,OVC020,0.00,0.00,VWS V14.01,2013-03-08 07:55:00,
2013-03-08 01:59:00,38.9,32.0,30.19,ESE,123,0.0,4.0,76,0.00,,CLR,0.00,0.00,VWS V14.01,2013-03-08 07:59:00,
2013-03-08 02:00:00,37.7,31.8,30.18,ESE,108,0.0,3.0,79,0.00,,OVC020,0.00,0.00,VWS V14.01,2013-03-08 08:00:00,
2013-03-08 02:04:00,38.7,31.8,30.20,East,101,1.0,3.0,76,0.00,,CLR,0.00,0.00,VWS V14.01,2013-03-08 08:04:00,
2013-03-08 02:05:00,37.6,32.0,30.18,SE,132,0.0,4.0,80,0.00,,OVC020,0.00,0.00,VWS V14.01,2013-03-08 08:05:00,
2013-03-08 02:09:00,38.6,32.0,30.20,South,183,1.0,2.0,77,0.00,,CLR,0.00,0.00,VWS V14.01,2013-03-08 08:09:00,
2013-03-08 02:10:00,37.4,31.8,30.18,SSE,153,0.0,4.0,80,0.00,,OVC020,0.00,0.00,VWS V14.01,2013-03-08 08:10:00,
2013-03-08 02:14:00,38.4,31.8,30.20,SSE,148,0.0,2.0,77,0.00,,CLR,0.00,0.00,VWS V14.01,2013-03-08 08:14:00,
2013-03-08 02:15:00,37.4,31.8,30.18,SE,138,0.0,5.0,80,0.00,,OVC020,0.00,0.00,VWS V14.01,2013-03-08 08:15:00,
2013-03-08 02:19:00,38.3,31.7,30.19,South,169,0.0,3.0,77,0.00,,CLR,0.00,0.00,VWS V14.01,2013-03-08 08:19:00,
2013-03-08 02:20:00,37.3,31.7,30.18,SSW,207,0.0,5.0,80,0.00,,OVC020,0.00,0.00,VWS V14.01,2013-03-08 08:20:00,
2013-03-08 02:24:00,38.2,32.0,30.19,South,169,2.0,5.0,78,0.00,,CLR,0.00,0.00,VWS V14.01,2013-03-08 08:24:00,
2013-03-08 02:25:00,37.3,31.7,30.18,South,178,0.0,1.0,80,0.00,,OVC020,0.00,0.00,VWS V14.01,2013-03-08 08:25:00,
2013-03-08 02:29:00,38.1,31.9,30.19,SSE,157,3.0,3.0,78,0.00,,CLR,0.00,0.00,VWS V14.01,2013-03-08 08:29:00,
2013-03-08 02:30:00,37.1,31.5,30.18,SSE,156,0.0,2.0,80,0.00,,OVC020,0.00,0.00,VWS V14.01,2013-03-08 08:30:00,
2013-03-08 02:34:00,38.0,31.8,30.19,SE,144,2.0,4.0,78,0.00,,CLR,0.00,0.00,VWS V14.01,2013-03-08 08:34:00,
2013-03-08 02:35:00,37.1,31.8,30.18,ESE,121,2.0,4.0,81,0.00,,OVC020,0.00,0.00,VWS V14.01,2013-03-08 08:35:00,
2013-03-08 02:39:00,37.9,32.0,30.19,SSE,166,0.0,5.0,79,0.00,,CLR,0.00,0.00,VWS V14.01,2013-03-08 08:39:00,
2013-03-08 02:40:00,37.1,31.8,30.18,SSE,163,2.0,3.0,81,0.00,,OVC020,0.00,0.00,VWS V14.01,2013-03-08 08:40:00,
2013-03-08 02:44:00,37.8,31.9,30.19,ESE,123,0.0,5.0,79,0.00,,CLR,0.00,0.00,VWS V14.01,2013-03-08 08:44:00,
2013-03-08 02:45:00,37.0,31.7,30.18,South,174,0.0,3.0,81,0.00,,OVC020,0.00,0.00,VWS V14.01,2013-03-08 08:45:00,
2013-03-08 02:49:00,37.8,32.2,30.19,ESE,106,1.0,7.0,80,0.00,,CLR,0.00,0.00,VWS V14.01,2013-03-08 08:49:00,
2013-03-08 02:50:00,36.9,31.6,30.18,SE,139,0.0,2.0,81,0.00,,OVC020,0.00,0.00,VWS V14.01,2013-03-08 08:50:00,
2013-03-08 02:54:00,37.8,31.9,30.19,East,92,2.0,4.0,79,0.00,,CLR,0.00,0.00,VWS V14.01,2013-03-08 08:54:00,
2013-03-08 02:55:00,36.8,31.5,30.18,North,355,1.0,4.0,81,0.00,,OVC020,0.00,0.00,VWS V14.01,2013-03-08 08:55:00,
2013-03-08 02:59:00,37.7,31.8,30.19,ESE,108,0.0,3.0,79,0.00,,CLR,0.00,0.00,VWS V14.01,2013-03-08 08:59:00,
2013-03-08 03:00:00,36.7,31.4,30.18,SE,126,0.0,4.0,81,0.00,,OVC020,0.00,0.00,VWS V14.01,2013-03-08 09:00:00,
2013-03-08 03:04:00,37.6,31.7,30.18,ESE,120,1.0,3.0,79,0.00,,CLR,0.00,0.00,VWS V14.01,2013-03-08 09:04:00,
2013-03-08 03:05:00,36.6,31.3,30.18,East,88,3.0,3.0,81,0.00,,OVC020,0.00,0.00,VWS V14.01,2013-03-08 09:05:00,
2013-03-08 03:09:00,37.5,31.9,30.18,SE,132,0.0,2.0,80,0.00,,CLR,0.00,0.00,VWS V14.01,2013-03-08 09:09:00,
2013-03-08 03:10:00,36.5,31.5,30.18,ESE,111,0.0,4.0,82,0.00,,OVC020,0.00,0.00,VWS V14.01,2013-03-08 09:10:00,
2013-03-08 03:14:00,37.4,31.8,30.18,SE,144,2.0,5.0,80,0.00,,CLR,0.00,0.00,VWS V14.01,2013-03-08 09:14:00,
2013-03-08 03:15:00,36.5,31.5,30.18,SE,136,0.0,7.0,82,0.00,,OVC020,0.00,0.00,VWS V14.01,2013-03-08 09:15:00,
2013-03-08 03:19:00,37.4,31.8,30.18,SSW,207,0.0,5.0,80,0.00,,CLR,0.00,0.00,VWS V14.01,2013-03-08 09:19:00,
2013-03-08 03:20:00,36.4,31.4,30.18,ESE,117,0.0,3.0,82,0.00,,OVC020,0.00,0.00,VWS V14.01,2013-03-08 09:20:00,
2013-03-08 03:24:00,37.3,31.7,30.18,South,178,0.0,1.0,80,0.00,,CLR,0.00,0.00,VWS V14.01,2013-03-08 09:24:00,
2013-03-08 03:25:00,36.4,31.4,30.18,SSE,152,3.0,5.0,82,0.00,,OVC020,0.00,0.00,VWS V14.01,2013-03-08 09:25:00,
2013-03-08 03:29:00,37.2,31.6,30.18,SSE,156,0.0,2.0,80,0.00,,CLR,0.00,0.00,VWS V14.01,2013-03-08 09:29:00,
2013-03-08 03:30:00,36.3,31.3,30.18,SE,137,0.0,5.0,82,0.00,,OVC020,0.00,0.00,VWS V14.01,2013-03-08 09:30:00,
2013-03-08 03:34:00,37.1,31.8,30.18,SE,140,0.0,4.0,81,0.00,,CLR,0.00,0.00,VWS V14.01,2013-03-08 09:34:00,
2013-03-08 03:35:00,36.2,31.2,30.18,ESE,105,1.0,5.0,82,0.00,,OVC020,0.00,0.00,VWS V14.01,2013-03-08 09:35:00,
2013-03-08 03:39:00,37.1,31.8,30.18,SE,145,1.0,3.0,81,0.00,,CLR,0.00,0.00,VWS V14.01,2013-03-08 09:39:00,
2013-03-08 03:40:00,36.1,31.1,30.18,SSE,161,1.0,3.0,82,0.00,,OVC020,0.00,0.00,VWS V14.01,2013-03-08 09:40:00,
2013-03-08 03:44:00,37.0,31.7,30.18,South,189,1.0,3.0,81,0.00,,CLR,0.00,0.00,VWS V14.01,2013-03-08 09:44:00,
2013-03-08 03:45:00,36.0,31.0,30.18,SE,144,2.0,7.0,82,0.00,,OVC020,0.00,0.00,VWS V14.01,2013-03-08 09:45:00,
2013-03-08 03:49:00,36.9,31.6,30.18,SE,139,0.0,2.0,81,0.00,,CLR,0.00,0.00,VWS V14.01,2013-03-08 09:49:00,
2013-03-08 03:50:00,36.0,31.0,30.18,SSE,147,0.0,3.0,82,0.00,,OVC020,0.00,0.00,VWS V14.01,2013-03-08 09:50:00,
2013-03-08 03:54:00,36.8,31.5,30.18,South,169,0.0,4.0,81,0.00,,CLR,0.00,0.00,VWS V14.01,2013-03-08 09:54:00,
2013-03-08 03:55:00,35.9,31.0,30.18,SSE,168,0.0,4.0,82,0.00,,OVC020,0.00,0.00,VWS V14.01,2013-03-08 09:55:00,
2013-03-08 03:59:00,36.8,31.5,30.18,SE,135,0.0,4.0,81,0.00,,CLR,0.00,0.00,VWS V14.01,2013-03-08 09:59:00,
2013-03-08 04:00:00,35.9,31.0,30.18,ESE,115,2.0,5.0,82,0.00,,OVC020,0.00,0.00,VWS V14.01,2013-03-08 10:00:00,
2013-03-08 04:05:00,36.6,31.3,30.18,SE,138,0.0,2.0,81,0.00,,CLR,0.00,0.00,VWS V14.01,2013-03-08 10:05:00,
2013-03-08 04:10:00,36.6,31.6,30.18,ESE,117,0.0,4.0,82,0.00,,CLR,0.00,0.00,VWS V14.01,2013-03-08 10:10:00,
2013-03-08 04:15:00,36.5,31.5,30.18,SE,144,0.0,7.0,82,0.00,,CLR,0.00,0.00,VWS V14.01,2013-03-08 10:15:00,
2013-03-08 04:20:00,36.4,31.4,30.18,ESE,117,0.0,3.0,82,0.00,,CLR,0.00,0.00,VWS V14.01,2013-03-08 10:20:00,
2013-03-08 04:25:00,36.4,31.4,30.18,ESE,106,0.0,5.0,82,0.00,,CLR,0.00,0.00,VWS V14.01,2013-03-08 10:25:00,
2013-03-08 04:30:00,36.3,31.3,30.18,SE,138,0.0,5.0,82,0.00,,CLR,0.00,0.00,VWS V14.01,2013-03-08 10:30:00,
2013-03-08 04:35:00,36.2,31.2,30.18,ENE,67,2.0,3.0,82,0.00,,CLR,0.00,0.00,VWS V14.01,2013-03-08 10:35:00,
2013-03-08 04:40:00,36.1,31.1,30.18,South,185,2.0,3.0,82,0.00,,CLR,0.00,0.00,VWS V14.01,2013-03-08 10:40:00,
2013-03-08 04:45:00,36.1,31.1,30.18,SE,132,2.0,7.0,82,0.00,,CLR,0.00,0.00,VWS V14.01,2013-03-08 10:45:00,
2013-03-08 04:50:00,36.0,31.0,30.18,South,179,1.0,3.0,82,0.00,,CLR,0.00,0.00,VWS V14.01,2013-03-08 10:50:00,
2013-03-08 04:55:00,35.9,31.0,30.18,SSE,168,0.0,4.0,82,0.00,,CLR,0.00,0.00,VWS V14.01,2013-03-08 10:55:00,
2013-03-08 05:00:00,35.9,31.0,30.18,South,187,1.0,5.0,82,0.00,,CLR,0.00,0.00,VWS V14.01,2013-03-08 11:00:00,
2013-03-08 05:05:00,35.9,31.0,30.18,SSW,207,0.0,2.0,82,0.00,,CLR,0.00,0.00,VWS V14.01,2013-03-08 11:05:00,
2013-03-08 05:10:00,35.8,30.9,30.18,SE,138,1.0,6.0,82,0.00,,CLR,0.00,0.00,VWS V14.01,2013-03-08 11:10:00,
2013-03-08 05:15:00,35.7,30.8,30.19,ESE,122,2.0,3.0,82,0.00,,CLR,0.00,0.00,VWS V14.01,2013-03-08 11:15:00,
2013-03-08 05:20:00,35.7,31.0,30.19,SE,140,0.0,4.0,83,0.00,,CLR,0.00,0.00,VWS V14.01,2013-03-08 11:20:00,
2013-03-08 05:25:00,35.7,31.0,30.19,SSW,204,0.0,4.0,83,0.00,,CLR,0.00,0.00,VWS V14.01,2013-03-08 11:25:00,
2013-03-08 05:30:00,35.6,31.0,30.20,SE,144,0.0,5.0,83,0.00,,CLR,0.00,0.00,VWS V14.01,2013-03-08 11:30:00,
2013-03-08 05:35:00,35.6,31.0,30.20,SSE,167,0.0,3.0,83,0.00,,CLR,0.00,0.00,VWS V14.01,2013-03-08 11:35:00,
2013-03-08 05:40:00,35.5,30.9,30.20,SSE,167,0.0,2.0,83,0.00,,CLR,0.00,0.00,VWS V14.01,2013-03-08 11:40:00,
2013-03-08 05:45:00,35.5,30.9,30.21,SE,134,0.0,3.0,83,0.00,,CLR,0.00,0.00,VWS V14.01,2013-03-08 11:45:00,
2013-03-08 05:50:00,35.4,30.8,30.21,ESE,105,2.0,2.0,83,0.00,,CLR,0.00,0.00,VWS V14.01,2013-03-08 11:50:00,
2013-03-08 05:55:00,35.4,30.8,30.21,SE,140,1.0,5.0,83,0.00,,CLR,0.00,0.00,VWS V14.01,2013-03-08 11:55:00,
2013-03-08 06:00:00,35.4,30.8,30.20,SE,133,7.0,7.0,83,0.00,,CLR,0.00,0.00,VWS V14.01,2013-03-08 12:00:00,
2013-03-08 06:05:00,35.4,30.8,30.20,SE,128,0.0,6.0,83,0.00,,CLR,0.00,0.00,VWS V14.01,2013-03-08 12:05:00,
2013-03-08 06:10:00,35.4,30.8,30.20,SSE,164,1.0,4.0,83,0.00,,CLR,0.00,0.00,VWS V14.01,2013-03-08 12:10:00,
2013-03-08 06:15:00,35.4,30.8,30.21,SE,143,0.0,4.0,83,0.00,,CLR,0.00,0.00,VWS V14.01,2013-03-08 12:15:00,
2013-03-08 06:20:00,35.3,30.7,30.21,SSE,156,1.0,5.0,83,0.00,,CLR,0.00,0.00,VWS V14.01,2013-03-08 12:20:00,
2013-03-08 06:25:00,35.2,30.6,30.21,SE,134,1.0,5.0,83,0.00,,OVC020,0.00,65.00,VWS V14.01,2013-03-08 12:25:00,
2013-03-08 06:26:00,35.3,30.7,30.21,SSE,149,0.0,7.0,83,0.00,,CLR,0.00,0.00,VWS V14.01,2013-03-08 12:26:00,
2013-03-08 06:30:00,35.4,30.8,30.21,South,170,2.0,7.0,83,0.00,,OVC020,0.00,63.00,VWS V14.01,2013-03-08 12:30:00,
2013-03-08 06:31:00,35.2,30.6,30.21,South,191,1.0,1.0,83,0.00,,CLR,0.00,0.00,VWS V14.01,2013-03-08 12:31:00,
2013-03-08 06:35:00,35.6,31.0,30.21,SE,137,3.0,4.0,83,0.00,,OVC020,0.00,60.00,VWS V14.01,2013-03-08 12:35:00,
2013-03-08 06:36:00,35.2,30.6,30.21,South,186,1.0,1.0,83,0.00,,CLR,0.00,5.00,VWS V14.01,2013-03-08 12:36:00,
2013-03-08 06:40:00,35.8,31.1,30.21,East,101,2.0,5.0,83,0.00,,OVC020,0.00,100.00,VWS V14.01,2013-03-08 12:40:00,
2013-03-08 06:41:00,35.1,30.5,30.21,ESE,121,0.0,0.0,83,0.00,,CLR,0.00,7.00,VWS V14.01,2013-03-08 12:41:00,
2013-03-08 06:45:00,36.1,31.1,30.21,SE,146,0.0,7.0,82,0.00,,OVC020,0.00,125.00,VWS V14.01,2013-03-08 12:45:00,
2013-03-08 06:46:00,35.1,30.5,30.20,SSE,148,0.0,0.0,83,0.00,,CLR,0.00,9.00,VWS V14.01,2013-03-08 12:46:00,
2013-03-08 06:50:00,36.5,31.5,30.21,South,178,0.0,5.0,82,0.00,,OVC020,0.00,83.00,VWS V14.01,2013-03-08 12:50:00,
2013-03-08 06:51:00,35.0,30.4,30.20,SE,142,0.0,0.0,83,0.00,,CLR,0.00,16.00,VWS V14.01,2013-03-08 12:51:00,
2013-03-08 06:55:00,36.7,31.4,30.21,SSE,157,4.0,8.0,81,0.00,,OVC020,0.00,188.00,VWS V14.01,2013-03-08 12:55:00,
2013-03-08 06:56:00,34.9,30.6,30.20,SE,142,0.0,0.0,84,0.00,,CLR,0.00,19.00,VWS V14.01,2013-03-08 12:56:00,
2013-03-08 07:00:00,37.0,31.4,30.21,SW,223,2.0,11.0,80,0.00,,OVC020,0.00,47.00,VWS V14.01,2013-03-08 13:00:00,
2013-03-08 07:01:00,34.9,30.6,30.19,South,170,2.0,7.0,84,0.00,,CLR,0.00,21.00,VWS V14.01,2013-03-08 13:01:00,
2013-03-08 07:05:00,37.3,31.7,30.21,SSE,150,4.0,8.0,80,0.00,,OVC020,0.00,234.00,VWS V14.01,2013-03-08 13:05:00,
2013-03-08 07:06:00,34.9,30.6,30.19,ESE,119,4.0,4.0,84,0.00,,CLR,0.00,21.00,VWS V14.01,2013-03-08 13:06:00,
2013-03-08 07:10:00,37.7,31.8,30.21,ESE,107,4.0,6.0,79,0.00,,OVC020,0.00,251.00,VWS V14.01,2013-03-08 13:10:00,
2013-03-08 07:11:00,35.0,30.4,30.19,SSE,150,1.0,1.0,83,0.00,,CLR,0.00,25.00,VWS V14.01,2013-03-08 13:11:00,
2013-03-08 07:15:00,38.2,32.0,30.21,South,180,1.0,10.0,78,0.00,,OVC020,0.00,269.00,VWS V14.01,2013-03-08 13:15:00,
2013-03-08 07:16:00,35.0,30.4,30.21,SE,136,5.0,5.0,83,0.00,,CLR,0.00,35.00,VWS V14.01,2013-03-08 13:16:00,
2013-03-08 07:20:00,38.7,32.1,30.21,South,177,0.0,9.0,77,0.00,,OVC020,0.00,285.00,VWS V14.01,2013-03-08 13:20:00,
2013-03-08 07:21:00,35.1,30.5,30.21,SSW,192,1.0,1.0,83,0.00,,CLR,0.00,53.00,VWS V14.01,2013-03-08 13:21:00,
2013-03-08 07:25:00,39.2,32.6,30.21,SSE,157,4.0,8.0,77,0.00,,OVC020,0.00,299.00,VWS V14.01,2013-03-08 13:25:00,
2013-03-08 07:26:00,35.2,30.6,30.21,SE,146,2.0,4.0,83,0.00,,CLR,0.00,65.00,VWS V14.01,2013-03-08 13:26:00,
2013-03-08 07:30:00,39.8,32.5,30.20,SE,140,2.0,13.0,75,0.00,,OVC020,0.00,316.00,VWS V14.01,2013-03-08 13:30:00,
2013-03-08 07:31:00,35.4,30.8,30.21,SE,129,2.0,2.0,83,0.00,,CLR,0.00,63.00,VWS V14.01,2013-03-08 13:31:00,
2013-03-08 07:35:00,40.2,32.6,30.20,SE,146,0.0,10.0,74,0.00,,OVC020,0.00,334.00,VWS V14.01,2013-03-08 13:35:00,
2013-03-08 07:36:00,35.6,31.0,30.21,SE,137,0.0,3.0,83,0.00,,CLR,0.00,60.00,VWS V14.01,2013-03-08 13:36:00,
2013-03-08 07:40:00,40.7,33.1,30.20,ESE,113,7.0,8.0,74,0.00,,OVC020,0.00,353.00,VWS V14.01,2013-03-08 13:40:00,
2013-03-08 07:41:00,35.8,31.1,30.21,ESE,115,3.0,3.0,83,0.00,,CLR,0.00,100.00,VWS V14.01,2013-03-08 13:41:00,
2013-03-08 07:45:00,41.2,33.6,30.20,South,172,1.0,7.0,74,0.00,,OVC020,0.00,373.00,VWS V14.01,2013-03-08 13:45:00,
2013-03-08 07:46:00,36.1,31.1,30.21,SE,138,1.0,3.0,82,0.00,,CLR,0.00,86.00,VWS V14.01,2013-03-08 13:46:00,
2013-03-08 07:50:00,41.8,33.5,30.20,SSE,165,0.0,5.0,72,0.00,,OVC020,0.00,387.00,VWS V14.01,2013-03-08 13:50:00,
2013-03-08 07:51:00,36.5,31.5,30.21,SE,126,2.0,2.0,82,0.00,,CLR,0.00,116.00,VWS V14.01,2013-03-08 13:51:00,
2013-03-08 07:55:00,42.5,33.4,30.20,East,92,5.0,10.0,70,0.00,,OVC020,0.00,397.00,VWS V14.01,2013-03-08 13:55:00,
2013-03-08 07:56:00,36.8,31.5,30.21,ESE,121,7.0,11.0,81,0.00,,CLR,0.00,188.00,VWS V14.01,2013-03-08 13:56:00,
2013-03-08 08:00:00,43.0,33.5,30.21,SSE,162,5.0,11.0,69,0.00,,OVC020,0.00,408.00,VWS V14.01,2013-03-08 14:00:00,
2013-03-08 08:01:00,37.0,31.4,30.21,SE,125,3.0,3.0,80,0.00,,CLR,0.00,221.00,VWS V14.01,2013-03-08 14:01:00,
2013-03-08 08:05:00,43.3,34.2,30.21,NE,51,0.0,6.0,70,0.00,,OVC020,0.00,427.00,VWS V14.01,2013-03-08 14:05:00,
2013-03-08 08:06:00,37.4,31.8,30.21,SW,229,4.0,4.0,80,0.00,,CLR,0.00,237.00,VWS V14.01,2013-03-08 14:06:00,
2013-03-08 08:10:00,43.6,33.4,30.21,East,82,2.0,9.0,67,0.00,,OVC020,0.00,443.00,VWS V14.01,2013-03-08 14:10:00,
2013-03-08 08:11:00,37.7,31.8,30.21,SSE,150,1.0,5.0,79,0.00,,CLR,0.00,251.00,VWS V14.01,2013-03-08 14:11:00,
2013-03-08 08:15:00,44.0,33.4,30.21,SSW,200,3.0,7.0,66,0.00,,OVC020,0.00,464.00,VWS V14.01,2013-03-08 14:15:00,
2013-03-08 08:16:00,38.3,32.0,30.21,South,169,0.0,3.0,78,0.00,,CLR,0.00,269.00,VWS V14.01,2013-03-08 14:16:00,
2013-03-08 08:20:00,44.6,34.0,30.21,SE,140,2.0,7.0,66,0.00,,OVC020,0.00,487.00,VWS V14.01,2013-03-08 14:20:00,
2013-03-08 08:21:00,38.8,32.2,30.21,SE,145,3.0,4.0,77,0.00,,CLR,0.00,285.00,VWS V14.01,2013-03-08 14:21:00,
2013-03-08 08:25:00,45.1,33.7,30.21,ESE,106,8.0,9.0,64,0.00,,OVC020,0.00,475.00,VWS V14.01,2013-03-08 14:25:00,
2013-03-08 08:26:00,39.3,32.4,30.21,ESE,117,5.0,5.0,76,0.00,,CLR,0.00,301.00,VWS V14.01,2013-03-08 14:26:00,
2013-03-08 08:30:00,45.5,34.0,30.20,SE,130,3.0,10.0,64,0.00,,OVC020,0.00,371.00,VWS V14.01,2013-03-08 14:30:00,
2013-03-08 08:31:00,39.9,32.6,30.20,SW,227,4.0,7.0,75,0.00,,CLR,0.00,320.00,VWS V14.01,2013-03-08 14:31:00,
2013-03-08 08:35:00,45.9,34.8,30.20,South,180,1.0,6.0,65,0.00,,OVC020,0.00,394.00,VWS V14.01,2013-03-08 14:35:00,
2013-03-08 08:37:00,40.3,32.7,30.20,West,269,4.0,5.0,74,0.00,,CLR,0.00,334.00,VWS V14.01,2013-03-08 14:37:00,
2013-03-08 08:40:00,46.2,34.7,30.20,ESE,119,7.0,9.0,64,0.00,,OVC020,0.00,304.00,VWS V14.01,2013-03-08 14:40:00,
2013-03-08 08:42:00,40.8,32.8,30.20,SE,129,0.0,7.0,73,0.00,,CLR,0.00,355.00,VWS V14.01,2013-03-08 14:42:00,
2013-03-08 08:45:00,46.6,34.7,30.20,South,178,11.0,11.0,63,0.00,,OVC020,0.00,563.00,VWS V14.01,2013-03-08 14:45:00,
2013-03-08 08:47:00,41.4,33.4,30.20,SSE,157,2.0,5.0,73,0.00,,CLR,0.00,371.00,VWS V14.01,2013-03-08 14:47:00,
2013-03-08 08:50:00,46.9,34.6,30.20,South,180,0.0,9.0,62,0.00,,OVC020,0.00,571.00,VWS V14.01,2013-03-08 14:50:00,
2013-03-08 08:52:00,42.0,33.6,30.20,SSE,165,0.0,2.0,72,0.00,,CLR,0.00,381.00,VWS V14.01,2013-03-08 14:52:00,
2013-03-08 08:55:00,47.3,35.4,30.20,South,173,7.0,8.0,63,0.00,,OVC020,0.00,578.00,VWS V14.01,2013-03-08 14:55:00,
2013-03-08 08:57:00,42.6,33.5,30.20,SSW,212,5.0,9.0,70,0.00,,CLR,0.00,404.00,VWS V14.01,2013-03-08 14:57:00,
2013-03-08 09:00:00,47.8,34.6,30.20,ESE,118,3.0,11.0,60,0.00,,OVC020,0.00,587.00,VWS V14.01,2013-03-08 15:00:00,
2013-03-08 09:02:00,43.1,33.6,30.21,ESE,110,1.0,6.0,69,0.00,,CLR,0.00,417.00,VWS V14.01,2013-03-08 15:02:00,
2013-03-08 09:05:00,48.4,35.6,30.20,SE,130,0.0,7.0,61,0.00,,OVC020,0.00,575.00,VWS V14.01,2013-03-08 15:05:00,
2013-03-08 09:07:00,43.4,33.6,30.21,SE,125,3.0,6.0,68,0.00,,CLR,0.00,434.00,VWS V14.01,2013-03-08 15:07:00,
2013-03-08 09:10:00,49.1,35.8,30.20,SSE,156,0.0,11.0,60,0.00,,OVC020,0.00,633.00,VWS V14.01,2013-03-08 15:10:00,
2013-03-08 09:12:00,43.7,33.5,30.21,SSE,153,0.0,7.0,67,0.00,,CLR,0.00,443.00,VWS V14.01,2013-03-08 15:12:00,
2013-03-08 09:15:00,49.6,35.0,30.19,ESE,102,5.0,11.0,57,0.00,,OVC020,0.00,738.00,VWS V14.01,2013-03-08 15:15:00,
2013-03-08 09:17:00,44.2,34.0,30.21,SE,146,5.0,7.0,67,0.00,,CLR,0.00,464.00,VWS V14.01,2013-03-08 15:17:00,
2013-03-08 09:20:00,49.8,35.2,30.19,SSE,150,6.0,9.0,57,0.00,,OVC020,0.00,638.00,VWS V14.01,2013-03-08 15:20:00,
2013-03-08 09:22:00,44.7,34.0,30.21,SSW,195,0.0,4.0,66,0.00,,CLR,0.00,490.00,VWS V14.01,2013-03-08 15:22:00,
2013-03-08 09:25:00,50.1,35.9,30.19,SW,227,3.0,7.0,58,0.00,,OVC020,0.00,413.00,VWS V14.01,2013-03-08 15:25:00,
2013-03-08 09:27:00,45.3,34.2,30.21,SE,140,0.0,8.0,65,0.00,,CLR,0.00,475.00,VWS V14.01,2013-03-08 15:27:00,
2013-03-08 09:30:00,50.2,35.6,30.18,SSW,206,1.0,5.0,57,0.00,,OVC020,0.00,362.00,VWS V14.01,2013-03-08 15:30:00,
2013-03-08 09:32:00,45.6,34.1,30.20,SSW,194,0.0,6.0,64,0.00,,CLR,0.00,399.00,VWS V14.01,2013-03-08 15:32:00,
2013-03-08 09:35:00,50.3,35.7,30.18,South,188,0.0,6.0,57,0.00,,OVC020,0.00,464.00,VWS V14.01,2013-03-08 15:35:00,
2013-03-08 09:37:00,46.0,34.5,30.20,SW,221,4.0,6.0,64,0.00,,CLR,0.00,441.00,VWS V14.01,2013-03-08 15:37:00,
2013-03-08 09:40:00,50.4,36.2,30.18,SSW,196,2.0,12.0,58,0.00,,OVC020,0.00,459.00,VWS V14.01,2013-03-08 15:40:00,
2013-03-08 09:42:00,46.3,34.8,30.20,SW,223,1.0,7.0,64,0.00,,CLR,0.00,334.00,VWS V14.01,2013-03-08 15:42:00,
2013-03-08 09:45:00,50.4,35.3,30.17,SSE,161,0.0,9.0,56,0.00,,OVC020,0.00,422.00,VWS V14.01,2013-03-08 15:45:00,
2013-03-08 09:47:00,46.7,34.4,30.20,SE,144,7.0,7.0,62,0.00,,CLR,0.00,563.00,VWS V14.01,2013-03-08 15:47:00,
2013-03-08 09:50:00,50.5,35.8,30.17,SE,144,0.0,5.0,57,0.00,,OVC020,0.00,343.00,VWS V14.01,2013-03-08 15:50:00,
2013-03-08 09:52:00,47.0,35.1,30.20,SSE,159,3.0,4.0,63,0.00,,CLR,0.00,577.00,VWS V14.01,2013-03-08 15:52:00,
2013-03-08 09:55:00,50.7,35.6,30.17,SE,139,3.0,8.0,56,0.00,,OVC020,0.00,350.00,VWS V14.01,2013-03-08 15:55:00,
2013-03-08 09:57:00,47.5,34.7,30.20,SSE,161,0.0,10.0,61,0.00,,CLR,0.00,580.00,VWS V14.01,2013-03-08 15:57:00,
2013-03-08 10:00:00,50.7,34.7,30.18,South,169,3.0,6.0,54,0.00,,OVC020,0.00,346.00,VWS V14.01,2013-03-08 16:00:00,
2013-03-08 10:02:00,48.0,34.8,30.20,ESE,121,0.0,7.0,60,0.00,,CLR,0.00,594.00,VWS V14.01,2013-03-08 16:02:00,
2013-03-08 10:05:00,50.7,35.1,30.18,SSE,156,6.0,10.0,55,0.00,,OVC020,0.00,332.00,VWS V14.01,2013-03-08 16:05:00,
2013-03-08 10:07:00,48.7,35.9,30.20,West,275,1.0,11.0,61,0.00,,CLR,0.00,619.00,VWS V14.01,2013-03-08 16:07:00,
2013-03-08 10:10:00,50.6,34.6,30.18,SSE,149,4.0,9.0,54,0.00,,OVC020,0.00,323.00,VWS V14.01,2013-03-08 16:10:00,
2013-03-08 10:13:00,49.4,35.3,30.20,ESE,120,5.0,11.0,58,0.00,,CLR,0.00,675.00,VWS V14.01,2013-03-08 16:13:00,
2013-03-08 10:15:00,50.5,35.8,30.18,South,169,0.0,6.0,57,0.00,,OVC020,0.00,359.00,VWS V14.01,2013-03-08 16:15:00,
2013-03-08 10:18:00,49.7,36.8,30.19,SW,223,5.0,5.0,61,0.00,,CLR,0.00,751.00,VWS V14.01,2013-03-08 16:18:00,
2013-03-08 10:20:00,50.6,35.0,30.18,ESE,123,3.0,10.0,55,0.00,,OVC020,0.00,371.00,VWS V14.01,2013-03-08 16:20:00,
2013-03-08 10:23:00,49.9,35.7,30.19,WSW,240,3.0,7.0,58,0.00,,CLR,0.00,399.00,VWS V14.01,2013-03-08 16:23:00,
2013-03-08 10:25:00,50.7,35.6,30.18,South,179,1.0,7.0,56,0.00,,OVC020,0.00,369.00,VWS V14.01,2013-03-08 16:25:00,
2013-03-08 10:28:00,50.2,35.6,30.19,SSE,159,3.0,5.0,57,0.00,,CLR,0.00,367.00,VWS V14.01,2013-03-08 16:28:00,
2013-03-08 10:30:00,50.9,35.8,30.17,South,179,1.0,5.0,56,0.00,,OVC020,0.00,410.00,VWS V14.01,2013-03-08 16:30:00,
2013-03-08 10:33:00,50.2,35.1,30.18,ENE,76,3.0,5.0,56,0.00,,CLR,0.00,380.00,VWS V14.01,2013-03-08 16:33:00,
2013-03-08 10:35:00,51.3,36.2,30.17,SW,221,3.0,5.0,56,0.00,,OVC020,0.00,568.00,VWS V14.01,2013-03-08 16:35:00,
2013-03-08 10:38:00,50.3,34.8,30.18,ESE,118,1.0,12.0,55,0.00,,CLR,0.00,473.00,VWS V14.01,2013-03-08 16:38:00,
2013-03-08 10:40:00,51.9,35.8,30.17,SSE,151,5.0,7.0,54,0.00,,OVC020,0.00,501.00,VWS V14.01,2013-03-08 16:40:00,
2013-03-08 10:43:00,50.4,35.8,30.18,SSE,156,2.0,8.0,57,0.00,,CLR,0.00,408.00,VWS V14.01,2013-03-08 16:43:00,
2013-03-08 10:45:00,52.4,36.3,30.17,SSE,165,0.0,7.0,54,0.00,,OVC020,0.00,591.00,VWS V14.01,2013-03-08 16:45:00,
2013-03-08 10:48:00,50.4,35.3,30.17,SSE,165,0.0,5.0,56,0.00,,CLR,0.00,367.00,VWS V14.01,2013-03-08 16:48:00,
2013-03-08 10:50:00,52.9,36.7,30.17,SE,144,0.0,9.0,54,0.00,,OVC020,0.00,504.00,VWS V14.01,2013-03-08 16:50:00,
2013-03-08 10:53:00,50.7,35.6,30.17,SSE,153,1.0,8.0,56,0.00,,CLR,0.00,348.00,VWS V14.01,2013-03-08 16:53:00,
2013-03-08 10:55:00,53.4,37.7,30.17,SSW,205,4.0,10.0,55,0.00,,OVC020,0.00,928.00,VWS V14.01,2013-03-08 16:55:00,
2013-03-08 10:58:00,50.7,35.6,30.17,ESE,120,3.0,6.0,56,0.00,,CLR,0.00,360.00,VWS V14.01,2013-03-08 16:58:00,
2013-03-08 11:00:00,54.1,37.4,30.16,SE,144,6.0,9.0,53,0.00,,OVC020,0.00,772.00,VWS V14.01,2013-03-08 17:00:00,
2013-03-08 11:03:00,50.7,35.1,30.18,SE,142,5.0,5.0,55,0.00,,CLR,0.00,346.00,VWS V14.01,2013-03-08 17:03:00,
2013-03-08 11:05:00,54.4,37.2,30.16,SE,130,1.0,6.0,52,0.00,,OVC020,0.00,461.00,VWS V14.01,2013-03-08 17:05:00,
2013-03-08 11:08:00,50.6,35.5,30.18,SE,132,2.0,7.0,56,0.00,,CLR,0.00,325.00,VWS V14.01,2013-03-08 17:08:00,
2013-03-08 11:10:00,54.6,36.3,30.16,ESE,120,4.0,9.0,50,0.00,,OVC020,0.00,534.00,VWS V14.01,2013-03-08 17:10:00,
2013-03-08 11:13:00,50.5,35.0,30.18,SSE,156,0.0,6.0,55,0.00,,CLR,0.00,330.00,VWS V14.01,2013-03-08 17:13:00,
2013-03-08 11:15:00,54.6,36.3,30.16,SSE,148,0.0,8.0,50,0.00,,OVC020,0.00,524.00,VWS V14.01,2013-03-08 17:15:00,
2013-03-08 11:18:00,50.6,35.9,30.18,SSE,150,3.0,5.0,57,0.00,,CLR,0.00,367.00,VWS V14.01,2013-03-08 17:18:00,
2013-03-08 11:20:00,54.6,36.8,30.16,SSE,155,0.0,8.0,51,0.00,,OVC020,0.00,557.00,VWS V14.01,2013-03-08 17:20:00,
2013-03-08 11:23:00,50.7,35.1,30.18,West,267,2.0,5.0,55,0.00,,CLR,0.00,366.00,VWS V14.01,2013-03-08 17:23:00,
2013-03-08 11:25:00,55.0,36.7,30.16,South,171,8.0,8.0,50,0.00,,OVC020,0.00,575.00,VWS V14.01,2013-03-08 17:25:00,
2013-03-08 11:28:00,50.8,35.7,30.18,SSE,153,3.0,5.0,56,0.00,,CLR,0.00,388.00,VWS V14.01,2013-03-08 17:28:00,
2013-03-08 11:30:00,55.3,37.0,30.16,WSW,258,2.0,6.0,50,0.00,,OVC020,0.00,480.00,VWS V14.01,2013-03-08 17:30:00,
2013-03-08 11:33:00,51.1,36.0,30.17,SSW,203,0.0,5.0,56,0.00,,CLR,0.00,466.00,VWS V14.01,2013-03-08 17:33:00,
2013-03-08 11:35:00,55.2,36.9,30.16,SSW,196,0.0,7.0,50,0.00,,OVC020,0.00,536.00,VWS V14.01,2013-03-08 17:35:00,
2013-03-08 11:38:00,51.7,36.1,30.17,SSE,167,7.0,7.0,55,0.00,,CLR,0.00,652.00,VWS V14.01,2013-03-08 17:38:00,
2013-03-08 11:40:00,55.3,37.0,30.16,SE,144,1.0,6.0,50,0.00,,OVC020,0.00,772.00,VWS V14.01,2013-03-08 17:40:00,
2013-03-08 11:43:00,52.3,36.2,30.17,SE,136,3.0,5.0,54,0.00,,CLR,0.00,619.00,VWS V14.01,2013-03-08 17:43:00,
2013-03-08 11:45:00,55.9,38.5,30.15,ESE,123,3.0,7.0,52,0.00,,OVC020,0.00,735.00,VWS V14.01,2013-03-08 17:45:00,
2013-03-08 11:48:00,52.7,36.5,30.17,SE,134,0.0,6.0,54,0.00,,CLR,0.00,471.00,VWS V14.01,2013-03-08 17:48:00,
2013-03-08 11:50:00,56.3,37.9,30.15,SSE,166,4.0,8.0,50,0.00,,OVC020,0.00,751.00,VWS V14.01,2013-03-08 17:50:00,
2013-03-08 11:54:00,53.1,36.0,30.17,WSW,240,3.0,10.0,52,0.00,,CLR,0.00,838.00,VWS V14.01,2013-03-08 17:54:00,
2013-03-08 11:55:00,56.9,38.0,30.15,SW,227,0.0,6.0,49,0.00,,OVC020,0.00,719.00,VWS V14.01,2013-03-08 17:55:00,
2013-03-08 11:59:00,53.8,36.6,30.17,SW,227,1.0,7.0,52,0.00,,CLR,0.00,916.00,VWS V14.01,2013-03-08 17:59:00,
2013-03-08 12:00:00,57.2,38.2,30.14,SSW,210,4.0,7.0,49,0.00,,OVC020,0.00,642.00,VWS V14.01,2013-03-08 18:00:00,
2013-03-08 12:04:00,54.3,36.6,30.16,SE,131,2.0,6.0,51,0.00,,CLR,0.00,682.00,VWS V14.01,2013-03-08 18:04:00,
2013-03-08 12:05:00,57.2,37.7,30.14,SSE,160,0.0,11.0,48,0.00,,OVC020,0.00,635.00,VWS V14.01,2013-03-08 18:05:00,
2013-03-08 12:09:00,54.5,36.3,30.16,South,182,0.0,9.0,50,0.00,,CLR,0.00,483.00,VWS V14.01,2013-03-08 18:09:00,
2013-03-08 12:10:00,57.5,39.5,30.14,South,174,2.0,9.0,51,0.00,,OVC020,0.00,603.00,VWS V14.01,2013-03-08 18:10:00,
2013-03-08 12:14:00,54.6,37.8,30.16,SSE,153,2.0,8.0,53,0.00,,CLR,0.00,489.00,VWS V14.01,2013-03-08 18:14:00,
2013-03-08 12:15:00,57.8,38.8,30.13,SE,133,0.0,8.0,49,0.00,,OVC020,0.00,533.00,VWS V14.01,2013-03-08 18:15:00,
2013-03-08 12:19:00,54.6,37.3,30.16,SSE,168,4.0,8.0,52,0.00,,CLR,0.00,510.00,VWS V14.01,2013-03-08 18:19:00,
2013-03-08 12:20:00,57.8,38.8,30.13,South,173,3.0,6.0,49,0.00,,OVC020,0.00,527.00,VWS V14.01,2013-03-08 18:20:00,
2013-03-08 12:24:00,54.8,38.5,30.16,SSE,164,1.0,5.0,54,0.00,,CLR,0.00,570.00,VWS V14.01,2013-03-08 18:24:00,
2013-03-08 12:25:00,57.8,38.8,30.13,ESE,123,9.0,11.0,49,0.00,,OVC020,0.00,448.00,VWS V14.01,2013-03-08 18:25:00,
2013-03-08 12:29:00,55.1,37.8,30.16,SSE,153,1.0,6.0,52,0.00,,CLR,0.00,499.00,VWS V14.01,2013-03-08 18:29:00,
2013-03-08 12:30:00,57.6,37.5,30.13,South,184,2.0,9.0,47,0.00,,OVC020,0.00,399.00,VWS V14.01,2013-03-08 18:30:00,
2013-03-08 12:34:00,55.2,36.9,30.16,WSW,240,3.0,7.0,50,0.00,,CLR,0.00,457.00,VWS V14.01,2013-03-08 18:34:00,
2013-03-08 12:35:00,57.3,37.3,30.13,SE,144,0.0,8.0,47,0.00,,OVC020,0.00,371.00,VWS V14.01,2013-03-08 18:35:00,
2013-03-08 12:39:00,55.2,37.9,30.16,SE,142,3.0,5.0,52,0.00,,CLR,0.00,652.00,VWS V14.01,2013-03-08 18:39:00,
2013-03-08 12:40:00,57.2,38.2,30.13,ESE,111,2.0,6.0,49,0.00,,OVC020,0.00,406.00,VWS V14.01,2013-03-08 18:40:00,
2013-03-08 12:44:00,55.6,37.3,30.16,SW,219,4.0,5.0,50,0.00,,CLR,0.00,819.00,VWS V14.01,2013-03-08 18:44:00,
2013-03-08 12:45:00,57.1,38.1,30.12,SSE,163,2.0,7.0,49,0.00,,OVC020,0.00,429.00,VWS V14.01,2013-03-08 18:45:00,
2013-03-08 12:49:00,56.1,38.2,30.15,SW,214,5.0,8.0,51,0.00,,CLR,0.00,717.00,VWS V14.01,2013-03-08 18:49:00,
2013-03-08 12:50:00,57.2,38.8,30.12,SE,132,6.0,8.0,50,0.00,,OVC020,0.00,476.00,VWS V14.01,2013-03-08 18:50:00,
2013-03-08 12:54:00,56.6,38.7,30.15,SSW,213,2.0,6.0,51,0.00,,CLR,0.00,701.00,VWS V14.01,2013-03-08 18:54:00,
2013-03-08 12:55:00,57.5,38.5,30.12,SSE,163,0.0,7.0,49,0.00,,OVC020,0.00,548.00,VWS V14.01,2013-03-08 18:55:00,
2013-03-08 12:59:00,57.1,38.7,30.15,SSE,168,2.0,7.0,50,0.00,,CLR,0.00,666.00,VWS V14.01,2013-03-08 18:59:00,
2013-03-08 13:00:00,58.0,38.4,30.11,ESE,109,1.0,7.0,48,0.00,,OVC020,0.00,462.00,VWS V14.01,2013-03-08 19:00:00,
2013-03-08 13:04:00,57.3,37.8,30.14,SE,134,10.0,11.0,48,0.00,,CLR,0.00,612.00,VWS V14.01,2013-03-08 19:04:00,
2013-03-08 13:05:00,58.2,38.6,30.11,SSE,162,1.0,6.0,48,0.00,,OVC020,0.00,443.00,VWS V14.01,2013-03-08 19:05:00,
2013-03-08 13:09:00,57.4,37.9,30.14,West,261,0.0,9.0,48,0.00,,CLR,0.00,636.00,VWS V14.01,2013-03-08 19:09:00,
2013-03-08 13:10:00,58.1,37.5,30.11,SE,125,5.0,9.0,46,0.00,,OVC020,0.00,533.00,VWS V14.01,2013-03-08 19:10:00,
2013-03-08 13:14:00,57.7,37.6,30.14,SE,145,0.0,6.0,47,0.00,,CLR,0.00,554.00,VWS V14.01,2013-03-08 19:14:00,
2013-03-08 13:15:00,57.9,38.3,30.10,East,86,6.0,10.0,48,0.00,,OVC020,0.00,515.00,VWS V14.01,2013-03-08 19:15:00,
2013-03-08 13:19:00,57.8,37.7,30.13,SSW,209,0.0,6.0,47,0.00,,CLR,0.00,501.00,VWS V14.01,2013-03-08 19:19:00,
2013-03-08 13:20:00,57.8,38.3,30.10,SSE,160,3.0,10.0,48,0.00,,OVC020,0.00,408.00,VWS V14.01,2013-03-08 19:20:00,
2013-03-08 13:24:00,57.8,37.2,30.13,SW,229,1.0,9.0,46,0.00,,CLR,0.00,462.00,VWS V14.01,2013-03-08 19:24:00,
2013-03-08 13:25:00,57.7,38.7,30.10,ESE,113,3.0,7.0,49,0.00,,OVC020,0.00,338.00,VWS V14.01,2013-03-08 19:25:00,
2013-03-08 13:29:00,57.7,38.2,30.13,South,184,0.0,9.0,48,0.00,,CLR,0.00,413.00,VWS V14.01,2013-03-08 19:29:00,
2013-03-08 13:30:00,57.7,37.6,30.09,West,267,3.0,8.0,47,0.00,,OVC020,0.00,357.00,VWS V14.01,2013-03-08 19:30:00,
2013-03-08 13:34:00,57.4,38.4,30.13,SW,235,1.0,8.0,49,0.00,,CLR,0.00,367.00,VWS V14.01,2013-03-08 19:34:00,
2013-03-08 13:35:00,57.6,38.6,30.09,SE,136,5.0,8.0,49,0.00,,OVC020,0.00,383.00,VWS V14.01,2013-03-08 19:35:00,
2013-03-08 13:39:00,57.2,38.2,30.13,SSW,197,1.0,3.0,49,0.00,,CLR,0.00,397.00,VWS V14.01,2013-03-08 19:39:00,
2013-03-08 13:40:00,57.6,37.5,30.09,SSE,168,2.0,10.0,47,0.00,,OVC020,0.00,373.00,VWS V14.01,2013-03-08 19:40:00,
2013-03-08 13:44:00,57.1,38.7,30.13,SSE,154,0.0,6.0,50,0.00,,CLR,0.00,424.00,VWS V14.01,2013-03-08 19:44:00,
2013-03-08 13:45:00,57.7,37.1,30.07,ESE,118,7.0,7.0,46,0.00,,OVC020,0.00,334.00,VWS V14.01,2013-03-08 19:45:00,
2013-03-08 13:49:00,57.1,38.1,30.12,SW,235,1.0,6.0,49,0.00,,CLR,0.00,461.00,VWS V14.01,2013-03-08 19:49:00,
2013-03-08 13:50:00,57.4,37.3,30.07,SE,137,4.0,10.0,47,0.00,,OVC020,0.00,283.00,VWS V14.01,2013-03-08 19:50:00,
2013-03-08 13:55:00,57.3,38.3,30.12,SSE,165,0.0,7.0,49,0.00,,CLR,0.00,555.00,VWS V14.01,2013-03-08 19:55:00,
2013-03-08 14:00:00,57.8,38.8,30.12,SSW,207,1.0,6.0,49,0.00,,CLR,0.00,485.00,VWS V14.01,2013-03-08 20:00:00,
2013-03-08 14:05:00,58.2,38.6,30.11,SSE,153,2.0,6.0,48,0.00,,CLR,0.00,445.00,VWS V14.01,2013-03-08 20:05:00,
2013-03-08 14:10:00,58.2,37.5,30.11,SE,131,1.0,9.0,46,0.00,,CLR,0.00,454.00,VWS V14.01,2013-03-08 20:10:00,
2013-03-08 14:15:00,57.9,37.8,30.10,NE,55,4.0,9.0,47,0.00,,CLR,0.00,515.00,VWS V14.01,2013-03-08 20:15:00,
2013-03-08 14:20:00,57.8,37.7,30.10,SSW,207,0.0,9.0,47,0.00,,CLR,0.00,408.00,VWS V14.01,2013-03-08 20:20:00,
2013-03-08 14:25:00,57.7,38.2,30.10,SE,134,1.0,7.0,48,0.00,,CLR,0.00,343.00,VWS V14.01,2013-03-08 20:25:00,
2013-03-08 14:30:00,57.7,39.2,30.09,ESE,106,8.0,8.0,50,0.00,,CLR,0.00,339.00,VWS V14.01,2013-03-08 20:30:00,
2013-03-08 14:35:00,57.6,37.5,30.09,SW,222,4.0,8.0,47,0.00,,CLR,0.00,383.00,VWS V14.01,2013-03-08 20:35:00,
2013-03-08 14:40:00,57.6,38.6,30.09,South,188,2.0,10.0,49,0.00,,CLR,0.00,378.00,VWS V14.01,2013-03-08 20:40:00,
2013-03-08 14:45:00,57.7,37.6,30.07,SE,134,2.0,6.0,47,0.00,,CLR,0.00,343.00,VWS V14.01,2013-03-08 20:45:00,
2013-03-08 14:50:00,57.3,37.3,30.07,ESE,117,1.0,10.0,47,0.00,,CLR,0.00,288.00,VWS V14.01,2013-03-08 20:50:00,
2013-03-08 14:55:00,57.3,37.8,30.07,SE,128,3.0,8.0,48,0.00,,CLR,0.00,253.00,VWS V14.01,2013-03-08 20:55:00,
2013-03-08 15:00:00,57.3,36.7,30.07,SSW,211,3.0,11.0,46,0.00,,CLR,0.00,220.00,VWS V14.01,2013-03-08 21:00:00,
2013-03-08 15:05:00,57.0,37.0,30.07,ESE,119,1.0,7.0,47,0.00,,CLR,0.00,209.00,VWS V14.01,2013-03-08 21:05:00,
2013-03-08 15:10:00,56.9,37.4,30.07,SSE,159,2.0,9.0,48,0.00,,CLR,0.00,186.00,VWS V14.01,2013-03-08 21:10:00,
2013-03-08 15:15:00,56.7,36.7,30.07,SE,132,4.0,12.0,47,0.00,,CLR,0.00,163.00,VWS V14.01,2013-03-08 21:15:00,
2013-03-08 15:20:00,56.4,36.4,30.07,ESE,106,3.0,10.0,47,0.00,,CLR,0.00,144.00,VWS V14.01,2013-03-08 21:20:00,
2013-03-08 15:25:00,56.3,36.9,30.07,SE,144,0.0,9.0,48,0.00,,CLR,0.00,142.00,VWS V14.01,2013-03-08 21:25:00,
2013-03-08 15:30:00,56.3,36.9,30.06,SSW,203,5.0,8.0,48,0.00,,CLR,0.00,141.00,VWS V14.01,2013-03-08 21:30:00,
2013-03-08 15:35:00,56.2,37.3,30.06,SE,127,0.0,9.0,49,0.00,,CLR,0.00,148.00,VWS V14.01,2013-03-08 21:35:00,
2013-03-08 15:40:00,56.2,36.8,30.06,ESE,106,2.0,8.0,48,0.00,,CLR,0.00,151.00,VWS V14.01,2013-03-08 21:40:00,
2013-03-08 15:45:00,56.2,37.3,30.06,ESE,113,2.0,6.0,49,0.00,,CLR,0.00,132.00,VWS V14.01,2013-03-08 21:45:00,
2013-03-08 15:50:00,56.2,37.3,30.06,SE,132,0.0,8.0,49,0.00,,CLR,0.00,118.00,VWS V14.01,2013-03-08 21:50:00,
2013-03-08 15:55:00,56.2,37.3,30.06,South,169,1.0,6.0,49,0.00,,CLR,0.00,109.00,VWS V14.01,2013-03-08 21:55:00,
2013-03-08 16:00:00,56.1,36.7,30.05,SE,141,4.0,9.0,48,0.00,,CLR,0.00,98.00,VWS V14.01,2013-03-08 22:00:00,
2013-03-08 16:05:00,55.9,36.5,30.05,SE,137,4.0,11.0,48,0.00,,CLR,0.00,100.00,VWS V14.01,2013-03-08 22:05:00,
2013-03-08 16:10:00,54.3,36.1,30.05,SSE,168,2.0,7.0,50,0.00,,OVC020,0.00,26.00,VWS V14.01,2013-03-08 22:10:00,
2013-03-08 16:11:00,55.8,36.4,30.05,East,94,2.0,6.0,48,0.00,,CLR,0.00,97.00,VWS V14.01,2013-03-08 22:11:00,
2013-03-08 16:15:00,54.2,36.0,30.06,ESE,109,0.0,5.0,50,0.00,,OVC020,0.00,23.00,VWS V14.01,2013-03-08 22:15:00,
2013-03-08 16:16:00,55.6,36.8,30.05,SSE,151,5.0,9.0,49,0.00,,CLR,0.00,79.00,VWS V14.01,2013-03-08 22:16:00,
2013-03-08 16:20:00,54.1,35.9,30.06,SE,139,0.0,9.0,50,0.00,,OVC020,0.00,30.00,VWS V14.01,2013-03-08 22:20:00,
2013-03-08 16:21:00,55.5,36.2,30.05,SW,217,3.0,3.0,48,0.00,,CLR,0.00,70.00,VWS V14.01,2013-03-08 22:21:00,
2013-03-08 16:25:00,53.9,36.2,30.06,ESE,117,0.0,6.0,51,0.00,,OVC020,0.00,37.00,VWS V14.01,2013-03-08 22:25:00,
2013-03-08 16:26:00,55.4,36.1,30.05,SW,223,7.0,7.0,48,0.00,,CLR,0.00,63.00,VWS V14.01,2013-03-08 22:26:00,
2013-03-08 16:30:00,53.8,36.1,30.06,ESE,117,2.0,5.0,51,0.00,,OVC020,0.00,33.00,VWS V14.01,2013-03-08 22:30:00,
2013-03-08 16:31:00,55.3,36.5,30.05,SW,221,0.0,1.0,49,0.00,,CLR,0.00,53.00,VWS V14.01,2013-03-08 22:31:00,
2013-03-08 16:35:00,53.7,35.5,30.06,SSE,148,5.0,8.0,50,0.00,,OVC020,0.00,26.00,VWS V14.01,2013-03-08 22:35:00,
2013-03-08 16:36:00,55.2,36.4,30.05,SE,130,0.0,1.0,49,0.00,,CLR,0.00,53.00,VWS V14.01,2013-03-08 22:36:00,
2013-03-08 16:40:00,53.5,35.3,30.06,ENE,71,2.0,9.0,50,0.00,,OVC020,0.00,19.00,VWS V14.01,2013-03-08 22:40:00,
2013-03-08 16:41:00,55.1,36.3,30.05,East,92,0.0,6.0,49,0.00,,CLR,0.00,46.00,VWS V14.01,2013-03-08 22:41:00,
2013-03-08 16:45:00,53.4,35.2,30.05,SE,146,1.0,12.0,50,0.00,,OVC020,0.00,12.00,VWS V14.01,2013-03-08 22:45:00,
2013-03-08 16:46:00,55.0,36.2,30.05,SE,124,3.0,5.0,49,0.00,,CLR,0.00,33.00,VWS V14.01,2013-03-08 22:46:00,
2013-03-08 16:50:00,53.2,35.6,30.05,SE,132,5.0,12.0,51,0.00,,OVC020,0.00,7.00,VWS V14.01,2013-03-08 22:50:00,
2013-03-08 16:51:00,54.8,36.5,30.05,ESE,117,0.0,0.0,50,0.00,,CLR,0.00,30.00,VWS V14.01,2013-03-08 22:51:00,
2013-03-08 16:55:00,53.1,35.5,30.05,ESE,111,0.0,7.0,51,0.00,,OVC020,0.00,5.00,VWS V14.01,2013-03-08 22:55:00,
2013-03-08 16:56:00,54.7,36.4,30.05,SSE,152,1.0,3.0,50,0.00,,CLR,0.00,26.00,VWS V14.01,2013-03-08 22:56:00,
2013-03-08 17:00:00,53.0,35.4,30.05,SE,139,2.0,8.0,51,0.00,,OVC020,0.00,0.00,VWS V14.01,2013-03-08 23:00:00,
2013-03-08 17:01:00,54.5,36.3,30.05,SSE,148,0.0,0.0,50,0.00,,CLR,0.00,23.00,VWS V14.01,2013-03-08 23:01:00,
2013-03-08 17:05:00,52.8,35.7,30.05,SE,125,0.0,8.0,52,0.00,,OVC020,0.00,0.00,VWS V14.01,2013-03-08 23:05:00,
2013-03-08 17:06:00,54.4,36.2,30.05,SE,137,0.0,7.0,50,0.00,,OVC070,0.00,25.00,VWS V14.01,2013-03-08 23:06:00,
2013-03-08 17:10:00,52.6,36.0,30.05,ESE,123,4.0,7.0,53,0.00,,OVC020,0.00,0.00,VWS V14.01,2013-03-08 23:10:00,
2013-03-08 17:11:00,54.3,36.1,30.05,East,92,1.0,2.0,50,0.00,,OVC070,0.00,28.00,VWS V14.01,2013-03-08 23:11:00,
2013-03-08 17:15:00,52.4,35.8,30.04,NNW,331,2.0,11.0,53,0.00,,OVC020,0.00,0.00,VWS V14.01,2013-03-08 23:15:00,
2013-03-08 17:16:00,54.2,36.0,30.06,ESE,109,0.0,0.0,50,0.00,,OVC070,0.00,23.00,VWS V14.01,2013-03-08 23:16:00,
2013-03-08 17:20:00,52.2,35.6,30.04,SE,124,2.0,9.0,53,0.00,,OVC020,0.00,0.00,VWS V14.01,2013-03-08 23:20:00,
2013-03-08 17:21:00,54.1,35.9,30.06,East,101,0.0,1.0,50,0.00,,OVC070,0.00,32.00,VWS V14.01,2013-03-08 23:21:00,
2013-03-08 17:25:00,52.1,35.5,30.04,SE,132,4.0,9.0,53,0.00,,OVC020,0.00,0.00,VWS V14.01,2013-03-08 23:25:00,
2013-03-08 17:26:00,53.9,36.2,30.06,ESE,117,0.0,0.0,51,0.00,,OVC070,0.00,37.00,VWS V14.01,2013-03-08 23:26:00,
2013-03-08 17:30:00,52.0,35.9,30.03,SE,140,5.0,8.0,54,0.00,,OVC020,0.00,0.00,VWS V14.01,2013-03-08 23:30:00,
2013-03-08 17:31:00,53.8,35.6,30.06,ESE,114,4.0,8.0,50,0.00,,OVC070,0.00,32.00,VWS V14.01,2013-03-08 23:31:00,
2013-03-08 17:35:00,51.8,35.7,30.03,East,97,3.0,11.0,54,0.00,,OVC020,0.00,0.00,VWS V14.01,2013-03-08 23:35:00,
2013-03-08 17:37:00,53.6,35.4,30.06,SE,144,0.0,5.0,50,0.00,,OVC070,0.00,25.00,VWS V14.01,2013-03-08 23:37:00,
2013-03-08 17:40:00,51.7,35.6,30.03,SE,146,2.0,6.0,54,0.00,,OVC020,0.00,0.00,VWS V14.01,2013-03-08 23:40:00,
2013-03-08 17:42:00,53.5,35.3,30.06,ESE,102,10.0,12.0,50,0.00,,OVC070,0.00,19.00,VWS V14.01,2013-03-08 23:42:00,
2013-03-08 17:45:00,51.6,36.0,30.05,East,98,0.0,5.0,55,0.00,,OVC020,0.00,0.00,VWS V14.01,2013-03-08 23:45:00,
2013-03-08 17:47:00,53.3,35.2,30.05,ESE,116,3.0,9.0,50,0.00,,OVC070,0.00,12.00,VWS V14.01,2013-03-08 23:47:00,
2013-03-08 17:50:00,51.5,35.9,30.05,East,82,7.0,7.0,55,0.00,,OVC020,0.00,0.00,VWS V14.01,2013-03-08 23:50:00,
2013-03-08 17:52:00,53.2,35.6,30.05,SE,145,0.0,5.0,51,0.00,,OVC070,0.00,7.00,VWS V14.01,2013-03-08 23:52:00,
2013-03-08 17:55:00,51.4,35.8,30.05,ENE,64,0.0,9.0,55,0.00,,OVC020,0.00,0.00,VWS V14.01,2013-03-08 23:55:00,
2013-03-08 17:57:00,53.1,35.5,30.05,ESE,119,7.0,7.0,51,0.00,,OVC070,0.00,5.00,VWS V14.01,2013-03-08 23:57:00,
2013-03-08 18:00:00,51.3,35.7,30.05,ESE,123,2.0,10.0,55,0.00,,OVC020,0.00,0.00,VWS V14.01,2013-03-09 00:00:00,
2013-03-08 18:02:00,52.9,35.3,30.05,ESE,109,4.0,8.0,51,0.00,,OVC048,0.00,0.00,VWS V14.01,2013-03-09 00:02:00,
2013-03-08 18:05:00,51.3,35.7,30.05,ESE,109,0.0,7.0,55,0.00,,OVC020,0.00,0.00,VWS V14.01,2013-03-09 00:05:00,
2013-03-08 18:07:00,52.8,35.7,30.05,East,92,2.0,5.0,52,0.00,,OVC048,0.00,0.00,VWS V14.01,2013-03-09 00:07:00,
2013-03-08 18:10:00,51.2,35.6,30.05,SE,140,2.0,7.0,55,0.00,,OVC020,0.00,0.00,VWS V14.01,2013-03-09 00:10:00,
2013-03-08 18:12:00,52.5,35.4,30.05,East,90,3.0,8.0,52,0.00,,OVC048,0.00,0.00,VWS V14.01,2013-03-09 00:12:00,
2013-03-08 18:15:00,51.1,35.5,30.06,SSE,157,0.0,7.0,55,0.00,,OVC020,0.00,0.00,VWS V14.01,2013-03-09 00:15:00,
2013-03-08 18:17:00,52.3,35.7,30.04,SE,132,4.0,9.0,53,0.00,,OVC048,0.00,0.00,VWS V14.01,2013-03-09 00:17:00,
2013-03-08 18:20:00,51.0,35.4,30.06,ESE,115,0.0,6.0,55,0.00,,OVC020,0.00,0.00,VWS V14.01,2013-03-09 00:20:00,
2013-03-08 18:22:00,52.2,36.1,30.04,ESE,105,5.0,7.0,54,0.00,,OVC048,0.00,0.00,VWS V14.01,2013-03-09 00:22:00,
2013-03-08 18:25:00,51.0,35.9,30.06,SE,129,3.0,10.0,56,0.00,,OVC020,0.00,0.00,VWS V14.01,2013-03-09 00:25:00,
2013-03-08 18:27:00,52.1,35.5,30.04,ESE,112,0.0,8.0,53,0.00,,OVC048,0.00,0.00,VWS V14.01,2013-03-09 00:27:00,
2013-03-08 18:30:00,51.0,35.4,30.06,SE,132,1.0,8.0,55,0.00,,OVC020,0.00,0.00,VWS V14.01,2013-03-09 00:30:00,
2013-03-08 18:32:00,51.9,35.8,30.03,SE,137,0.0,7.0,54,0.00,,OVC048,0.00,0.00,VWS V14.01,2013-03-09 00:32:00,
2013-03-08 18:35:00,51.0,35.4,30.06,ESE,110,7.0,7.0,55,0.00,,OVC020,0.00,0.00,VWS V14.01,2013-03-09 00:35:00,
2013-03-08 18:37:00,51.8,36.2,30.03,SSE,164,2.0,4.0,55,0.00,,OVC048,0.00,0.00,VWS V14.01,2013-03-09 00:37:00,
2013-03-08 18:40:00,51.0,35.4,30.06,East,98,3.0,8.0,55,0.00,,OVC020,0.00,0.00,VWS V14.01,2013-03-09 00:40:00,
2013-03-08 18:42:00,51.7,36.1,30.03,SE,146,1.0,5.0,55,0.00,,OVC048,0.00,0.00,VWS V14.01,2013-03-09 00:42:00,
2013-03-08 18:45:00,51.1,35.5,30.05,ESE,122,3.0,9.0,55,0.00,,OVC020,0.00,0.00,VWS V14.01,2013-03-09 00:45:00,
2013-03-08 18:47:00,51.5,35.9,30.05,SSE,157,2.0,3.0,55,0.00,,OVC048,0.00,0.00,VWS V14.01,2013-03-09 00:47:00,
2013-03-08 18:50:00,51.1,35.5,30.05,ESE,112,2.0,9.0,55,0.00,,OVC020,0.00,0.00,VWS V14.01,2013-03-09 00:50:00,
2013-03-08 18:52:00,51.4,35.8,30.05,ESE,108,3.0,9.0,55,0.00,,OVC048,0.00,0.00,VWS V14.01,2013-03-09 00:52:00,
2013-03-08 18:55:00,51.1,35.0,30.05,SSW,212,3.0,11.0,54,0.00,,OVC020,0.00,0.00,VWS V14.01,2013-03-09 00:55:00,
2013-03-08 18:57:00,51.4,35.8,30.05,SSE,166,5.0,9.0,55,0.00,,OVC048,0.00,0.00,VWS V14.01,2013-03-09 00:57:00,
2013-03-08 19:00:00,51.0,35.4,30.05,SSE,149,3.0,11.0,55,0.00,,OVC020,0.00,0.00,VWS V14.01,2013-03-09 01:00:00,
2013-03-08 19:02:00,51.3,35.7,30.05,SE,129,1.0,7.0,55,0.00,,OVC110,0.00,0.00,VWS V14.01,2013-03-09 01:02:00,
2013-03-08 19:05:00,51.0,35.4,30.05,ESE,121,3.0,9.0,55,0.00,,OVC020,0.00,0.00,VWS V14.01,2013-03-09 01:05:00,
2013-03-08 19:08:00,51.2,35.6,30.05,SW,234,2.0,2.0,55,0.00,,OVC110,0.00,0.00,VWS V14.01,2013-03-09 01:08:00,
2013-03-08 19:10:00,50.9,35.3,30.05,NNE,28,0.0,8.0,55,0.00,,OVC020,0.00,0.00,VWS V14.01,2013-03-09 01:10:00,
2013-03-08 19:13:00,51.1,35.5,30.05,ENE,69,3.0,4.0,55,0.00,,OVC110,0.00,0.00,VWS V14.01,2013-03-09 01:13:00,
2013-03-08 19:15:00,50.8,35.2,30.06,ESE,121,0.0,8.0,55,0.00,,OVC020,0.00,0.00,VWS V14.01,2013-03-09 01:15:00,
2013-03-08 19:18:00,51.1,36.0,30.06,SSE,157,0.0,1.0,56,0.00,,OVC110,0.00,0.00,VWS V14.01,2013-03-09 01:18:00,
2013-03-08 19:20:00,50.8,35.2,30.06,SE,142,0.0,6.0,55,0.00,,OVC020,0.00,0.00,VWS V14.01,2013-03-09 01:20:00,
2013-03-08 19:23:00,51.0,35.9,30.06,ESE,117,0.0,2.0,56,0.00,,OVC110,0.00,0.00,VWS V14.01,2013-03-09 01:23:00,
2013-03-08 19:25:00,50.7,35.1,30.06,SSW,194,4.0,11.0,55,0.00,,OVC020,0.00,0.00,VWS V14.01,2013-03-09 01:25:00,
2013-03-08 19:28:00,51.0,35.4,30.06,SSE,157,3.0,8.0,55,0.00,,OVC110,0.00,0.00,VWS V14.01,2013-03-09 01:28:00,
2013-03-08 19:30:00,50.6,35.0,30.05,SSE,158,0.0,4.0,55,0.00,,OVC020,0.00,0.00,VWS V14.01,2013-03-09 01:30:00,
2013-03-08 19:33:00,51.0,35.9,30.06,ESE,121,2.0,3.0,56,0.00,,OVC110,0.00,0.00,VWS V14.01,2013-03-09 01:33:00,
2013-03-08 19:35:00,50.5,35.0,30.05,ESE,120,5.0,9.0,55,0.00,,OVC020,0.00,0.00,VWS V14.01,2013-03-09 01:35:00,
2013-03-08 19:38:00,51.0,35.4,30.06,SE,141,1.0,8.0,55,0.00,,OVC110,0.00,0.00,VWS V14.01,2013-03-09 01:38:00,
2013-03-08 19:40:00,50.5,35.4,30.05,SSE,161,0.0,8.0,56,0.00,,OVC020,0.00,0.00,VWS V14.01,2013-03-09 01:40:00,
2013-03-08 19:43:00,51.0,35.4,30.06,East,92,3.0,7.0,55,0.00,,OVC110,0.00,0.00,VWS V14.01,2013-03-09 01:43:00,
2013-03-08 19:45:00,50.4,35.3,30.05,SE,144,1.0,9.0,56,0.00,,OVC020,0.00,0.00,VWS V14.01,2013-03-09 01:45:00,
2013-03-08 19:48:00,51.1,35.5,30.05,SE,140,3.0,9.0,55,0.00,,OVC110,0.00,0.00,VWS V14.01,2013-03-09 01:48:00,
2013-03-08 19:50:00,50.3,35.2,30.05,SSE,149,3.0,7.0,56,0.00,,OVC020,0.00,0.00,VWS V14.01,2013-03-09 01:50:00,
2013-03-08 19:53:00,51.1,35.5,30.05,SW,219,0.0,11.0,55,0.00,,OVC110,0.00,0.00,VWS V14.01,2013-03-09 01:53:00,
2013-03-08 19:55:00,50.2,35.1,30.05,East,98,7.0,10.0,56,0.00,,OVC020,0.00,0.00,VWS V14.01,2013-03-09 01:55:00,
2013-03-08 19:58:00,51.0,35.4,30.05,East,90,6.0,8.0,55,0.00,,OVC110,0.00,0.00,VWS V14.01,2013-03-09 01:58:00,
2013-03-08 20:00:00,50.2,35.1,30.04,SE,140,1.0,10.0,56,0.00,,OVC020,0.00,0.00,VWS V14.01,2013-03-09 02:00:00,
2013-03-08 20:03:00,51.0,35.4,30.05,SSE,158,0.0,9.0,55,0.00,,OVC060,0.00,0.00,VWS V14.01,2013-03-09 02:03:00,
2013-03-08 20:05:00,50.1,35.0,30.04,SSE,148,4.0,6.0,56,0.00,,OVC020,0.00,0.00,VWS V14.01,2013-03-09 02:05:00,
2013-03-08 20:08:00,50.9,35.3,30.05,ESE,114,3.0,8.0,55,0.00,,OVC060,0.00,0.00,VWS V14.01,2013-03-09 02:08:00,
2013-03-08 20:10:00,50.1,35.0,30.04,SE,146,6.0,7.0,56,0.00,,OVC020,0.00,0.00,VWS V14.01,2013-03-09 02:10:00,
2013-03-08 20:13:00,50.9,35.3,30.05,SSW,195,0.0,7.0,55,0.00,,OVC060,0.00,0.00,VWS V14.01,2013-03-09 02:13:00,
2013-03-08 20:15:00,50.0,34.9,30.05,SSE,162,0.0,9.0,56,0.00,,OVC020,0.00,0.00,VWS V14.01,2013-03-09 02:15:00,
2013-03-08 20:18:00,50.8,35.2,30.06,ESE,109,5.0,5.0,55,0.00,,OVC060,0.00,0.00,VWS V14.01,2013-03-09 02:18:00,
2013-03-08 20:20:00,50.0,34.9,30.05,SE,142,0.0,8.0,56,0.00,,OVC020,0.00,0.00,VWS V14.01,2013-03-09 02:20:00,
2013-03-08 20:23:00,50.8,35.2,30.06,ESE,121,0.0,11.0,55,0.00,,OVC060,0.00,0.00,VWS V14.01,2013-03-09 02:23:00,
2013-03-08 20:25:00,49.9,35.3,30.05,ESE,119,2.0,8.0,57,0.00,,OVC020,0.00,0.00,VWS V14.01,2013-03-09 02:25:00,
2013-03-08 20:28:00,50.7,35.6,30.06,ESE,119,3.0,4.0,56,0.00,,OVC060,0.00,0.00,VWS V14.01,2013-03-09 02:28:00,
2013-03-08 20:30:00,49.9,35.3,30.05,West,265,2.0,9.0,57,0.00,,OVC020,0.00,0.00,VWS V14.01,2013-03-09 02:30:00,
2013-03-08 20:33:00,50.6,35.5,30.05,ESE,117,0.0,8.0,56,0.00,,OVC060,0.00,0.00,VWS V14.01,2013-03-09 02:33:00,
2013-03-08 20:35:00,49.8,35.2,30.05,SE,126,5.0,8.0,57,0.00,,OVC020,0.00,0.00,VWS V14.01,2013-03-09 02:35:00,
2013-03-08 20:38:00,50.5,35.0,30.05,SSE,155,0.0,8.0,55,0.00,,OVC060,0.00,0.00,VWS V14.01,2013-03-09 02:38:00,
2013-03-08 20:40:00,49.7,35.1,30.05,SE,126,3.0,8.0,57,0.00,,OVC020,0.00,0.00,VWS V14.01,2013-03-09 02:40:00,
2013-03-08 20:44:00,50.4,35.3,30.05,SE,126,4.0,9.0,56,0.00,,OVC060,0.00,0.00,VWS V14.01,2013-03-09 02:44:00,
2013-03-08 20:45:00,49.7,35.1,30.05,ESE,123,0.0,5.0,57,0.00,,OVC020,0.00,0.00,VWS V14.01,2013-03-09 02:45:00,
2013-03-08 20:49:00,50.4,35.3,30.05,East,93,1.0,7.0,56,0.00,,OVC060,0.00,0.00,VWS V14.01,2013-03-09 02:49:00,
2013-03-08 20:50:00,49.6,35.0,30.05,SSW,202,3.0,10.0,57,0.00,,OVC020,0.00,0.00,VWS V14.01,2013-03-09 02:50:00,
2013-03-08 20:54:00,50.3,35.2,30.05,SSE,150,5.0,10.0,56,0.00,,OVC060,0.00,0.00,VWS V14.01,2013-03-09 02:54:00,
2013-03-08 20:55:00,49.6,35.0,30.05,SE,133,3.0,7.0,57,0.00,,OVC020,0.00,0.00,VWS V14.01,2013-03-09 02:55:00,
2013-03-08 20:59:00,50.2,35.1,30.05,ESE,107,2.0,10.0,56,0.00,,OVC060,0.00,0.00,VWS V14.01,2013-03-09 02:59:00,
2013-03-08 21:00:00,49.5,35.3,30.05,SE,136,6.0,8.0,58,0.00,,OVC020,0.00,0.00,VWS V14.01,2013-03-09 03:00:00,
2013-03-08 21:04:00,50.2,35.1,30.04,South,171,2.0,6.0,56,0.00,,FEW070,0.00,0.00,VWS V14.01,2013-03-09 03:04:00,
2013-03-08 21:05:00,49.5,35.3,30.05,SE,146,2.0,5.0,58,0.00,,OVC020,0.00,0.00,VWS V14.01,2013-03-09 03:05:00,
2013-03-08 21:09:00,50.1,35.0,30.04,SSE,159,2.0,7.0,56,0.00,,FEW070,0.00,0.00,VWS V14.01,2013-03-09 03:09:00,
2013-03-08 21:10:00,49.4,35.3,30.05,ESE,103,4.0,9.0,58,0.00,,OVC020,0.00,0.00,VWS V14.01,2013-03-09 03:10:00,
2013-03-08 21:14:00,50.1,35.0,30.04,SSE,156,4.0,9.0,56,0.00,,FEW070,0.00,0.00,VWS V14.01,2013-03-09 03:14:00,
2013-03-08 21:15:00,49.3,35.6,30.04,SE,133,1.0,11.0,59,0.00,,OVC020,0.00,0.00,VWS V14.01,2013-03-09 03:15:00,
2013-03-08 21:19:00,50.0,35.4,30.05,SE,134,4.0,4.0,57,0.00,,FEW070,0.00,0.00,VWS V14.01,2013-03-09 03:19:00,
2013-03-08 21:20:00,49.2,35.5,30.04,South,171,3.0,9.0,59,0.00,,OVC020,0.00,0.00,VWS V14.01,2013-03-09 03:20:00,
2013-03-08 21:24:00,50.0,35.4,30.05,SE,144,2.0,5.0,57,0.00,,FEW070,0.00,0.00,VWS V14.01,2013-03-09 03:24:00,
2013-03-08 21:25:00,49.2,35.9,30.04,ESE,108,10.0,10.0,60,0.00,,OVC020,0.00,0.00,VWS V14.01,2013-03-09 03:25:00,
2013-03-08 21:29:00,49.9,35.3,30.05,SSE,157,3.0,9.0,57,0.00,,FEW070,0.00,0.00,VWS V14.01,2013-03-09 03:29:00,
2013-03-08 21:30:00,49.0,36.6,30.03,SW,215,2.0,12.0,62,0.00,,OVC020,0.00,0.00,VWS V14.01,2013-03-09 03:30:00,
2013-03-08 21:34:00,49.9,35.3,30.05,SE,128,1.0,6.0,57,0.00,,FEW070,0.00,0.00,VWS V14.01,2013-03-09 03:34:00,
2013-03-08 21:35:00,48.7,36.7,30.03,SE,136,4.0,9.0,63,0.00,,OVC020,0.00,0.00,VWS V14.01,2013-03-09 03:35:00,
2013-03-08 21:39:00,49.7,35.1,30.05,ESE,122,7.0,8.0,57,0.00,,FEW070,0.00,0.00,VWS V14.01,2013-03-09 03:39:00,
2013-03-08 21:40:00,48.4,37.2,30.03,SSE,150,2.0,10.0,65,0.00,,OVC020,0.00,0.00,VWS V14.01,2013-03-09 03:40:00,
2013-03-08 21:44:00,49.7,35.5,30.05,SSE,148,1.0,5.0,58,0.00,,FEW070,0.00,0.00,VWS V14.01,2013-03-09 03:44:00,
2013-03-08 21:45:00,48.1,37.3,30.03,ESE,123,0.0,6.0,66,0.00,,OVC020,0.00,0.00,VWS V14.01,2013-03-09 03:45:00,
2013-03-08 21:49:00,49.6,35.5,30.05,South,184,8.0,10.0,58,0.00,,FEW070,0.00,0.00,VWS V14.01,2013-03-09 03:49:00,
2013-03-08 21:50:00,47.8,37.0,30.03,SSW,192,0.0,8.0,66,0.00,,OVC020,0.00,0.00,VWS V14.01,2013-03-09 03:50:00,
2013-03-08 21:54:00,49.6,35.0,30.05,SSW,205,3.0,7.0,57,0.00,,FEW070,0.00,0.00,VWS V14.01,2013-03-09 03:54:00,
2013-03-08 21:55:00,47.6,37.2,30.03,SE,140,0.0,10.0,67,0.00,,OVC020,0.00,0.00,VWS V14.01,2013-03-09 03:55:00,
2013-03-08 21:59:00,49.5,34.9,30.05,ESE,115,0.0,7.0,57,0.00,,FEW070,0.00,0.00,VWS V14.01,2013-03-09 03:59:00,
2013-03-08 22:00:00,47.4,37.0,30.02,SE,142,5.0,10.0,67,0.00,,OVC020,0.00,0.00,VWS V14.01,2013-03-09 04:00:00,
2013-03-08 22:04:00,49.5,35.3,30.05,SE,136,0.0,5.0,58,0.00,,BKN120,0.00,0.00,VWS V14.01,2013-03-09 04:04:00,
2013-03-08 22:05:00,47.2,38.3,30.02,ESE,103,7.0,8.0,71,0.00,,OVC020,0.00,0.00,VWS V14.01,2013-03-09 04:05:00,
2013-03-08 22:09:00,49.4,35.3,30.05,East,94,6.0,9.0,58,0.00,,BKN120,0.00,0.00,VWS V14.01,2013-03-09 04:09:00,
2013-03-08 22:10:00,46.8,39.0,30.02,South,191,2.0,12.0,74,0.00,,OVC020,0.00,0.00,VWS V14.01,2013-03-09 04:10:00,
2013-03-08 22:14:00,49.3,35.2,30.05,SE,130,2.0,8.0,58,0.00,,BKN120,0.00,0.00,VWS V14.01,2013-03-09 04:14:00,
2013-03-08 22:15:00,46.5,39.3,30.02,ESE,117,4.0,8.0,76,0.01,,OVC020,0.01,0.00,VWS V14.01,2013-03-09 04:15:00,
2013-03-08 22:19:00,49.3,35.6,30.04,ESE,112,7.0,9.0,59,0.00,,BKN120,0.00,0.00,VWS V14.01,2013-03-09 04:19:00,
2013-03-08 22:20:00,46.0,39.2,30.02,SSE,158,2.0,8.0,77,0.01,,OVC020,0.01,0.00,VWS V14.01,2013-03-09 04:20:00,
2013-03-08 22:24:00,49.2,35.9,30.04,SSE,148,1.0,7.0,60,0.00,,BKN120,0.00,0.00,VWS V14.01,2013-03-09 04:24:00,
2013-03-08 22:25:00,45.5,39.4,30.02,SE,128,2.0,8.0,79,0.01,,OVC020,0.01,0.00,VWS V14.01,2013-03-09 04:25:00,
2013-03-08 22:29:00,49.1,36.2,30.04,ESE,119,4.0,12.0,61,0.00,,BKN120,0.00,0.00,VWS V14.01,2013-03-09 04:29:00,
2013-03-08 22:30:00,45.1,39.0,30.01,SE,128,1.0,13.0,79,0.01,,OVC020,0.01,0.00,VWS V14.01,2013-03-09 04:30:00,
2013-03-08 22:34:00,48.8,36.8,30.03,South,190,2.0,9.0,63,0.00,,BKN120,0.00,0.00,VWS V14.01,2013-03-09 04:34:00,
2013-03-08 22:35:00,45.0,39.2,30.01,SSE,153,0.0,8.0,80,0.01,,OVC020,0.01,0.00,VWS V14.01,2013-03-09 04:35:00,
2013-03-08 22:39:00,48.5,36.9,30.03,ESE,116,3.0,10.0,64,0.00,,BKN120,0.00,0.00,VWS V14.01,2013-03-09 04:39:00,
2013-03-08 22:40:00,44.8,39.0,30.01,SE,133,1.0,10.0,80,0.01,,OVC020,0.01,0.00,VWS V14.01,2013-03-09 04:40:00,
2013-03-08 22:44:00,48.1,36.9,30.03,SSE,155,0.0,6.0,65,0.00,,BKN120,0.00,0.00,VWS V14.01,2013-03-09 04:44:00,
2013-03-08 22:45:00,44.7,39.2,30.01,SSE,159,3.0,6.0,81,0.01,,OVC020,0.01,0.00,VWS V14.01,2013-03-09 04:45:00,
2013-03-08 22:49:00,47.9,37.1,30.03,East,80,3.0,8.0,66,0.00,,BKN120,0.00,0.00,VWS V14.01,2013-03-09 04:49:00,
2013-03-08 22:50:00,44.5,39.0,30.01,SE,136,3.0,7.0,81,0.01,,OVC020,0.01,0.00,VWS V14.01,2013-03-09 04:50:00,
2013-03-08 22:54:00,47.6,36.8,30.03,SSE,162,4.0,10.0,66,0.00,,BKN120,0.00,0.00,VWS V14.01,2013-03-09 04:54:00,
2013-03-08 22:55:00,44.4,39.3,30.01,SE,137,3.0,5.0,82,0.01,,OVC020,0.01,0.00,VWS V14.01,2013-03-09 04:55:00,
2013-03-08 22:59:00,47.4,37.0,30.03,SSE,155,2.0,10.0,67,0.00,,BKN120,0.00,0.00,VWS V14.01,2013-03-09 04:59:00,
2013-03-08 23:00:00,44.2,39.4,30.00,ESE,119,0.0,13.0,83,0.02,,OVC020,0.02,0.00,VWS V14.01,2013-03-09 05:00:00,
2013-03-08 23:01:00,47.4,37.0,30.02,SE,142,5.0,10.0,67,0.00,,BKN120,0.00,0.00,VWS V14.01,2013-03-09 05:01:00,
2013-03-08 23:02:00,47.3,36.9,30.02,SSE,159,4.0,8.0,67,0.00,,BKN120,0.00,0.00,VWS V14.01,2013-03-09 05:02:00,
2013-03-08 23:04:00,47.3,37.3,30.02,South,187,1.0,8.0,68,0.00,,OVC080,0.00,0.00,VWS V14.01,2013-03-09 05:04:00,
2013-03-08 23:05:00,44.2,39.4,30.00,SSE,153,0.0,12.0,83,0.02,,OVC020,0.00,0.00,VWS V14.01,2013-03-09 05:05:00,
2013-03-08 23:09:00,47.0,38.5,30.02,SSE,153,0.0,12.0,72,0.00,,OVC080,0.00,0.00,VWS V14.01,2013-03-09 05:09:00,
2013-03-08 23:10:00,44.2,39.4,30.00,SE,133,0.0,7.0,83,0.02,,OVC020,0.00,0.00,VWS V14.01,2013-03-09 05:10:00,
2013-03-08 23:14:00,46.6,39.1,30.02,SSE,153,0.0,8.0,75,0.01,,OVC080,0.01,0.00,VWS V14.01,2013-03-09 05:14:00,
2013-03-08 23:15:00,44.2,39.1,29.99,South,171,1.0,6.0,82,0.02,,OVC020,0.00,0.00,VWS V14.01,2013-03-09 05:15:00,
2013-03-08 23:19:00,46.1,39.0,30.02,ESE,115,0.0,8.0,76,0.01,,OVC080,0.01,0.00,VWS V14.01,2013-03-09 05:19:00,
2013-03-08 23:20:00,44.3,38.8,29.99,SE,127,1.0,8.0,81,0.01,,OVC020,0.00,0.00,VWS V14.01,2013-03-09 05:20:00,
2013-03-08 23:24:00,45.7,39.2,30.02,ESE,117,2.0,8.0,78,0.01,,OVC080,0.01,0.00,VWS V14.01,2013-03-09 05:24:00,
2013-03-08 23:25:00,44.4,38.9,29.99,South,174,3.0,9.0,81,0.01,,OVC020,0.00,0.00,VWS V14.01,2013-03-09 05:25:00,
2013-03-08 23:29:00,45.2,39.1,30.02,SE,144,4.0,13.0,79,0.01,,OVC080,0.01,0.00,VWS V14.01,2013-03-09 05:29:00,
2013-03-08 23:30:00,44.5,38.7,29.99,SSE,152,1.0,9.0,80,0.01,,OVC020,0.00,0.00,VWS V14.01,2013-03-09 05:30:00,
2013-03-08 23:34:00,45.0,39.2,30.01,South,179,0.0,8.0,80,0.01,,OVC080,0.01,0.00,VWS V14.01,2013-03-09 05:34:00,
2013-03-08 23:35:00,44.6,38.8,29.99,South,184,1.0,5.0,80,0.01,,OVC020,0.00,0.00,VWS V14.01,2013-03-09 05:35:00,
2013-03-08 23:39:00,44.9,39.1,30.01,ESE,111,3.0,5.0,80,0.01,,OVC080,0.01,0.00,VWS V14.01,2013-03-09 05:39:00,
2013-03-08 23:40:00,44.8,39.0,29.99,SSE,154,2.0,11.0,80,0.01,,OVC020,0.00,0.00,VWS V14.01,2013-03-09 05:40:00,
2013-03-08 23:44:00,44.7,39.2,30.01,SSE,149,6.0,6.0,81,0.01,,OVC080,0.01,0.00,VWS V14.01,2013-03-09 05:44:00,
2013-03-08 23:45:00,44.8,39.3,29.99,SSE,150,4.0,9.0,81,0.01,,OVC020,0.00,0.00,VWS V14.01,2013-03-09 05:45:00,
2013-03-08 23:49:00,44.6,39.1,30.01,SSE,156,2.0,6.0,81,0.01,,OVC080,0.01,0.00,VWS V14.01,2013-03-09 05:49:00,
2013-03-08 23:50:00,44.7,39.5,29.99,SSE,155,2.0,7.0,82,0.02,,OVC020,0.01,0.00,VWS V14.01,2013-03-09 05:50:00,
2013-03-08 23:54:00,44.5,39.4,30.01,ESE,117,1.0,5.0,82,0.01,,OVC080,0.01,0.00,VWS V14.01,2013-03-09 05:54:00,
2013-03-08 23:55:00,44.5,39.7,29.99,South,173,0.0,7.0,83,0.03,,OVC020,0.02,0.00,VWS V14.01,2013-03-09 05:55:00,
2013-03-08 23:59:00,44.3,39.5,30.01,SSE,151,3.0,5.0,83,0.02,,OVC080,0.02,0.00,VWS V14.01,2013-03-09 05:59:00,